Time;durP1;ratioP1;P1;durP2;ratioP2;P2;SDS_P1;SDS_P2;PMS_P1;PMS_P2;Temp;Humidity;BMP_temperature;BMP_pressure;BME280_temperature;BME280_humidity;BME280_pressure;Samples;Min_cycle;Max_cycle;Signal;HPM_P1;HPM_P2
2021/05/18 00:00:42;;;;;;;2.38;1.38;;;;;;;11.70;85.99;92696.75;5080695;28;20035;-70
2021/05/18 00:03:08;;;;;;;1.52;0.80;;;;;;;11.56;85.00;92679.03;5079273;28;20162;-67
2021/05/18 00:05:35;;;;;;;1.10;1.00;;;;;;;11.55;85.54;92689.34;5070364;28;20024;-69
2021/05/18 00:08:04;;;;;;;1.02;0.82;;;;;;;11.52;86.14;92684.25;5072509;28;20093;-60
2021/05/18 00:13:18;;;;;;;0.55;0.55;;;;;;;11.51;86.17;92683.53;5084042;28;20520;-62
2021/05/18 00:15:45;;;;;;;0.73;0.55;;;;;;;11.49;85.84;92693.69;5069608;28;20048;-62
2021/05/18 00:18:11;;;;;;;0.82;0.82;;;;;;;11.45;85.46;92710.69;5069572;28;20704;-61
2021/05/18 00:20:36;;;;;;;1.02;0.70;;;;;;;11.38;85.34;92717.78;5085680;28;20078;-62
2021/05/18 00:23:04;;;;;;;0.73;0.50;;;;;;;11.40;85.69;92719.97;5089985;28;20507;-60
2021/05/18 00:25:30;;;;;;;6.38;1.27;;;;;;;11.38;85.38;92717.03;5089798;28;20035;-60
2021/05/18 00:27:56;;;;;;;3.80;0.82;;;;;;;11.28;85.17;92716.97;5084639;28;20032;-62
2021/05/18 00:30:22;;;;;;;0.50;0.50;;;;;;;11.29;84.83;92712.19;5075289;28;20039;-65
2021/05/18 00:32:47;;;;;;;0.57;0.57;;;;;;;11.22;84.32;92719.25;5079796;28;20008;-64
2021/05/18 00:35:13;;;;;;;0.77;0.70;;;;;;;11.11;84.78;92721.81;5080908;28;20082;-65
2021/05/18 00:37:40;;;;;;;0.38;0.38;;;;;;;10.98;85.76;92722.13;5078456;28;20051;-65
2021/05/18 00:40:09;;;;;;;1.33;0.60;;;;;;;10.66;87.02;92732.00;5071688;28;20408;-65
2021/05/18 00:42:47;;;;;;;1.58;0.93;;;;;;;10.51;87.42;92745.22;5069642;28;20098;-65
2021/05/18 00:45:14;;;;;;;9.65;1.08;;;;;;;10.45;87.89;92745.44;5069902;28;20032;-64
2021/05/18 00:47:39;;;;;;;0.85;0.85;;;;;;;10.52;87.76;92763.97;5069608;28;20059;-65
2021/05/18 00:50:05;;;;;;;0.80;0.80;;;;;;;10.58;88.11;92777.53;5069276;28;20408;-65
2021/05/18 00:52:31;;;;;;;0.68;0.68;;;;;;;10.43;87.80;92786.69;5069203;28;20049;-64
2021/05/18 00:55:09;;;;;;;3.13;1.80;;;;;;;10.44;87.71;92774.34;5069477;28;20032;-62
2021/05/18 01:00:19;;;;;;;2.13;1.70;;;;;;;10.65;87.73;92765.72;5058256;28;20589;-72
2021/05/18 01:02:47;;;;;;;0.73;0.73;;;;;;;10.57;88.96;92770.53;5073579;28;20416;-72
2021/05/18 01:05:20;;;;;;;1.70;1.48;;;;;;;10.18;89.55;92771.41;5083988;28;20055;-67
2021/05/18 01:07:49;;;;;;;2.08;1.60;;;;;;;10.16;90.81;92785.75;5093454;28;20028;-65
2021/05/18 01:10:16;;;;;;;2.40;1.75;;;;;;;10.21;91.38;92781.31;5093255;28;20036;-63
2021/05/18 01:12:42;;;;;;;1.60;1.50;;;;;;;10.28;91.45;92784.03;5092011;28;20081;-62
2021/05/18 01:15:09;;;;;;;1.50;1.10;;;;;;;10.38;91.64;92793.16;5073375;28;20086;-61
2021/05/18 01:17:34;;;;;;;1.77;1.63;;;;;;;10.46;91.26;92799.34;5072974;28;20090;-63
2021/05/18 01:20:12;;;;;;;2.22;1.50;;;;;;;10.62;91.17;92803.44;5072836;28;20025;-64
2021/05/18 01:22:43;;;;;;;3.95;2.38;;;;;;;10.83;90.68;92797.56;5072750;28;20489;-64
2021/05/18 01:25:09;;;;;;;2.85;2.53;;;;;;;10.99;89.62;92804.41;5073110;28;20052;-63
2021/05/18 01:27:37;;;;;;;4.10;2.53;;;;;;;10.91;89.63;92809.28;5072643;28;20032;-63
2021/05/18 01:30:04;;;;;;;2.25;1.73;;;;;;;11.04;89.05;92808.25;5072843;28;20031;-64
2021/05/18 01:32:29;;;;;;;2.47;2.22;;;;;;;11.07;88.67;92812.63;5072640;28;20035;-63
2021/05/18 01:34:55;;;;;;;2.40;2.08;;;;;;;11.17;88.59;92830.03;5072523;28;20025;-61
2021/05/18 01:37:20;;;;;;;3.78;2.05;;;;;;;11.17;89.11;92830.03;5072576;28;20025;-65
2021/05/18 01:40:05;;;;;;;1.95;1.77;;;;;;;11.26;88.92;92843.22;5072777;28;20024;-65
2021/05/18 01:42:51;;;;;;;2.17;1.75;;;;;;;11.20;87.84;92832.38;5072716;28;20032;-65
2021/05/18 01:45:20;;;;;;;4.25;1.45;;;;;;;11.22;87.53;92824.25;5072502;28;20035;-67
2021/05/18 01:47:54;;;;;;;8.05;2.38;;;;;;;10.78;88.51;92784.72;5072652;28;20032;-64
2021/05/18 01:50:25;;;;;;;3.10;1.98;;;;;;;11.03;88.76;92790.19;5071607;28;20119;-63
2021/05/18 01:52:51;;;;;;;2.20;1.60;;;;;;;11.22;87.35;92779.31;5072081;28;20183;-64
2021/05/18 01:55:27;;;;;;;3.00;1.88;;;;;;;11.25;87.31;92797.53;5072561;28;20033;-62
2021/05/18 01:57:53;;;;;;;8.02;2.08;;;;;;;11.36;86.89;92802.56;5072261;28;20031;-63
2021/05/18 02:00:21;;;;;;;1.70;1.60;;;;;;;11.14;86.92;92809.78;5073134;28;20032;-61
2021/05/18 02:02:47;;;;;;;1.33;1.10;;;;;;;11.15;87.43;92813.28;5092614;28;20028;-62
2021/05/18 02:05:15;;;;;;;1.75;1.25;;;;;;;11.13;87.90;92802.06;5092710;28;20028;-62
2021/05/18 02:07:42;;;;;;;1.67;1.50;;;;;;;11.29;87.20;92803.38;5092444;28;20468;-62
2021/05/18 02:10:13;;;;;;;2.42;1.85;;;;;;;11.26;87.59;92805.22;5091801;28;20024;-69
2021/05/18 02:12:39;;;;;;;1.48;1.25;;;;;;;11.38;87.61;92811.75;5091672;28;20035;-68
2021/05/18 02:26:15;;;;;;;1.95;1.83;;;;;;;11.24;85.43;92785.03;5072011;28;20063;-68
2021/05/18 02:28:41;;;;;;;2.15;1.50;;;;;;;11.01;85.79;92776.22;5053817;28;20059;-69
2021/05/18 02:31:06;;;;;;;1.80;1.70;;;;;;;11.06;84.51;92787.03;5053723;28;20027;-69
2021/05/18 02:33:32;;;;;;;2.60;1.50;;;;;;;10.97;84.61;92803.50;5071997;28;20028;-69
2021/05/18 02:35:57;;;;;;;4.32;1.75;;;;;;;10.68;85.38;92812.22;5071848;28;20481;-68
2021/05/18 02:38:23;;;;;;;2.00;1.73;;;;;;;10.58;85.56;92821.69;5071770;28;20040;-68
2021/05/18 02:40:48;;;;;;;1.85;1.60;;;;;;;10.34;86.61;92823.16;5071498;28;20035;-68
2021/05/18 02:43:20;;;;;;;2.58;2.22;;;;;;;10.17;87.43;92827.88;5071808;28;20021;-65
2021/05/18 02:51:04;;;;;;;3.80;2.85;;;;;;;10.14;88.31;92843.50;5089234;28;20303;-66
2021/05/18 02:53:29;;;;;;;3.55;2.80;;;;;;;10.15;88.79;92853.28;5073823;28;20016;-66
2021/05/18 02:56:08;;;;;;;2.22;1.80;;;;;;;10.12;87.69;92843.34;5091648;28;20027;-65
2021/05/18 02:58:36;;;;;;;3.00;1.90;;;;;;;10.42;87.06;92864.50;5091778;28;20026;-66
2021/05/18 03:01:01;;;;;;;3.10;2.10;;;;;;;10.14;88.98;92879.38;5091412;28;20023;-66
2021/05/18 03:03:27;;;;;;;3.15;2.05;;;;;;;10.36;90.03;92863.97;5091207;28;20024;-64
2021/05/18 03:05:52;;;;;;;3.00;1.73;;;;;;;10.31;89.28;92865.66;5091472;28;20027;-64
2021/05/18 03:08:19;;;;;;;2.72;2.33;;;;;;;10.17;89.52;92858.22;5091299;28;20024;-64
2021/05/18 03:10:45;;;;;;;2.47;1.92;;;;;;;10.22;89.66;92862.78;5091009;28;20089;-64
2021/05/18 03:13:10;;;;;;;2.28;2.08;;;;;;;10.27;89.74;92867.34;5085583;28;20020;-64
2021/05/18 03:15:36;;;;;;;2.00;1.90;;;;;;;10.28;90.25;92863.31;5071044;28;20037;-64
2021/05/18 03:18:03;;;;;;;2.20;1.85;;;;;;;10.26;90.50;92876.94;5070351;28;20033;-64
2021/05/18 03:20:28;;;;;;;2.22;2.03;;;;;;;10.47;89.48;92885.63;5070158;28;20115;-63
2021/05/18 03:22:54;;;;;;;2.13;1.65;;;;;;;10.45;89.68;92871.66;5070001;28;20136;-63
2021/05/18 03:25:21;;;;;;;2.42;2.22;;;;;;;10.53;90.14;92875.09;5070783;28;20103;-63
2021/05/18 03:27:46;;;;;;;2.30;2.10;;;;;;;10.55;90.24;92869.75;5069701;28;20040;-62
2021/05/18 03:35:46;;;;;;;2.05;1.63;;;;;;;10.85;89.12;92877.81;5089348;28;20093;-61
2021/05/18 03:38:19;;;;;;;6.13;2.08;;;;;;;10.93;89.07;92875.00;5088971;28;20028;-62
2021/05/18 03:40:52;;;;;;;3.30;2.13;;;;;;;11.01;88.16;92878.41;5089402;28;20060;-62
2021/05/18 03:48:38;;;;;;;2.65;2.28;;;;;;;10.83;87.01;92863.13;5089649;28;20036;-59
2021/05/18 03:48:52;;;;;;;2.42;1.63;;;;;;;10.88;87.70;92871.16;5089098;28;20035;-60
2021/05/18 03:54:22;;;;;;;2.10;1.90;;;;;;;11.31;86.59;92867.81;5090274;28;20035;-59
2021/05/18 04:05:12;;;;;;;3.17;2.95;;;;;;;11.85;84.44;92885.34;5090420;28;20027;-59
2021/05/18 04:18:30;;;;;;;4.50;2.35;;;;;;;11.80;83.80;92905.66;5069635;28;20103;-63
2021/05/18 04:21:05;;;;;;;2.30;2.03;;;;;;;11.91;83.21;92904.47;5069401;28;20048;-63
2021/05/18 04:26:23;;;;;;;3.10;2.17;;;;;;;11.79;82.60;92917.31;5069848;28;20036;-64
2021/05/18 04:50:30;;;;;;;1.88;1.77;;;;;;;11.70;83.08;92929.75;5077861;28;20031;-61
2021/05/18 05:01:16;;;;;;;2.88;2.25;;;;;;;12.21;82.35;92931.06;5089714;28;20102;-61
2021/05/18 05:04:12;;;;;;;2.70;1.83;;;;;;;12.32;81.47;92934.06;5089813;28;20107;-60
2021/05/18 05:06:44;;;;;;;2.22;1.80;;;;;;;12.38;80.13;92940.06;5089069;28;20044;-61
2021/05/18 05:14:31;;;;;;;2.42;1.85;;;;;;;13.07;79.19;92939.88;5073743;28;20624;-61
2021/05/18 05:16:56;;;;;;;1.83;1.70;;;;;;;13.28;78.07;92943.59;5069320;28;20028;-61
2021/05/18 05:19:26;;;;;;;1.75;1.48;;;;;;;13.31;77.12;92938.94;5069207;28;20461;-59
2021/05/18 05:21:51;;;;;;;1.17;1.08;;;;;;;13.55;77.50;92940.75;5069179;28;20124;-61
2021/05/18 05:24:17;;;;;;;4.20;1.55;;;;;;;13.76;76.02;92940.94;5069057;28;20020;-60
2021/05/18 05:26:42;;;;;;;1.73;1.23;;;;;;;14.24;73.41;92944.50;5069189;28;20131;-59
2021/05/18 05:29:08;;;;;;;6.07;3.40;;;;;;;14.29;72.31;92940.00;5068815;28;20416;-60
2021/05/18 05:31:35;;;;;;;9.18;4.97;;;;;;;14.46;71.79;92936.31;5069128;28;20104;-60
2021/05/18 05:34:00;;;;;;;1.60;1.50;;;;;;;14.64;71.42;92943.88;5068812;28;20033;-59
2021/05/18 05:36:26;;;;;;;1.10;1.00;;;;;;;14.60;71.99;92943.59;5068736;28;20028;-59
2021/05/18 05:38:52;;;;;;;1.30;1.20;;;;;;;14.48;71.55;92939.25;5068785;28;20020;-59
2021/05/18 05:41:18;;;;;;;1.50;1.27;;;;;;;14.39;72.21;92951.81;5068671;28;20033;-59
2021/05/18 05:43:43;;;;;;;1.73;1.63;;;;;;;14.34;72.33;92955.59;5068736;28;20025;-58
2021/05/18 05:46:09;;;;;;;4.75;2.15;;;;;;;14.14;71.26;92954.84;5072446;28;20020;-59
2021/05/18 05:48:35;;;;;;;1.20;1.10;;;;;;;14.08;70.55;92962.75;5072668;28;20467;-58
2021/05/18 05:51:02;;;;;;;1.88;1.00;;;;;;;14.14;70.78;92959.69;5071834;28;20030;-56
2021/05/18 05:53:28;;;;;;;3.00;1.77;;;;;;;14.43;70.41;92963.94;5072097;28;20053;-59
2021/05/18 05:55:53;;;;;;;1.75;1.48;;;;;;;14.70;69.42;92955.44;5072467;28;20043;-58
2021/05/18 05:58:18;;;;;;;2.28;1.70;;;;;;;14.68;69.20;92963.66;5072430;28;20142;-58
2021/05/18 06:00:44;;;;;;;2.70;1.83;;;;;;;14.56;70.62;92956.47;5071865;28;20585;-57
2021/05/18 06:03:09;;;;;;;0.77;0.77;;;;;;;14.43;70.56;92960.44;5071997;28;20021;-58
2021/05/18 06:05:35;;;;;;;0.70;0.70;;;;;;;14.15;70.66;92950.78;5080070;28;20522;-59
2021/05/18 06:08:00;;;;;;;0.73;0.60;;;;;;;14.03;70.74;92943.63;5081788;28;20028;-58
2021/05/18 06:10:36;;;;;;;0.90;0.70;;;;;;;14.11;71.64;92958.81;5080961;28;20028;-58
2021/05/18 06:34:50;;;;;;;0.93;0.80;;;;;;;14.19;70.00;92945.50;5089904;28;20428;-62
2021/05/18 06:47:41;;;;;;;0.65;0.65;;;;;;;14.55;66.58;92941.88;5080587;28;20047;-61
2021/05/18 06:50:28;;;;;;;1.77;1.65;;;;;;;14.65;67.54;92945.34;5076914;28;20024;-63
2021/05/18 06:52:55;;;;;;;0.73;0.73;;;;;;;14.67;64.10;92942.72;5081946;28;20559;-61
2021/05/18 06:55:25;;;;;;;2.47;1.45;;;;;;;14.82;66.42;92941.66;5089119;28;20027;-60
2021/05/18 06:57:57;;;;;;;2.38;1.33;;;;;;;14.99;65.83;92925.53;5089499;28;20030;-60
2021/05/18 07:00:22;;;;;;;1.00;1.00;;;;;;;15.25;64.81;92932.16;5089688;28;20054;-60
2021/05/18 07:02:50;;;;;;;4.95;2.55;;;;;;;15.65;63.19;92931.41;5089226;28;20857;-59
2021/05/18 07:05:34;;;;;;;0.82;0.82;;;;;;;15.68;60.22;92930.22;5082168;28;20397;-60
2021/05/18 07:10:31;;;;;;;1.73;1.25;;;;;;;16.31;58.29;92946.91;5090032;28;20028;-61
2021/05/18 07:12:56;;;;;;;1.08;0.82;;;;;;;16.47;55.15;92945.19;5089482;28;20020;-59
2021/05/18 07:15:22;;;;;;;1.58;1.48;;;;;;;16.90;54.21;92948.63;5079354;28;20035;-64
2021/05/18 07:17:47;;;;;;;0.55;0.43;;;;;;;17.37;52.21;92947.38;5068580;28;20032;-62
2021/05/18 07:20:17;;;;;;;1.30;0.47;;;;;;;17.93;51.13;92950.03;5068595;28;20077;-60
2021/05/18 07:22:42;;;;;;;0.30;0.30;;;;;;;18.87;46.83;92946.41;5068818;28;20090;-67
2021/05/18 07:25:08;;;;;;;2.20;0.85;;;;;;;19.62;46.90;92951.19;5068721;28;20032;-66
2021/05/18 07:27:33;;;;;;;0.77;0.47;;;;;;;20.17;45.03;92954.00;5067654;28;20032;-70
2021/05/18 07:30:00;;;;;;;0.77;0.70;;;;;;;20.03;43.79;92967.31;5068691;28;20063;-69
2021/05/18 07:32:25;;;;;;;0.57;0.40;;;;;;;20.84;41.63;92967.19;5068711;28;20032;-70
2021/05/18 07:34:51;;;;;;;0.70;0.60;;;;;;;20.92;40.37;92975.28;5068980;28;20032;-68
2021/05/18 07:37:17;;;;;;;0.85;0.60;;;;;;;21.37;40.32;92987.31;5068429;28;20045;-68
2021/05/18 07:39:43;;;;;;;0.40;0.40;;;;;;;22.03;39.67;92977.66;5068371;28;20029;-67
2021/05/18 07:42:09;;;;;;;0.35;0.30;;;;;;;22.28;37.07;92975.28;5068241;28;20036;-68
2021/05/18 07:44:35;;;;;;;0.20;0.20;;;;;;;22.28;36.52;92983.72;5067844;28;20119;-70
2021/05/18 07:47:01;;;;;;;0.93;0.52;;;;;;;22.91;35.71;92978.69;5068152;28;20031;-66
2021/05/18 07:49:31;;;;;;;0.13;0.13;;;;;;;23.05;36.30;92996.13;5072206;28;20424;-65
2021/05/18 08:05:33;;;;;;;0.20;0.20;;;;;;;23.05;35.22;93006.66;5056230;28;20059;-66
2021/05/18 08:07:59;;;;;;;1.02;0.50;;;;;;;23.75;34.31;93026.41;5087251;28;20070;-68
2021/05/18 08:12:57;;;;;;;1.45;0.28;;;;;;;23.85;33.28;93012.69;5084882;28;20033;-68
2021/05/18 08:18:29;;;;;;;0.40;0.40;;;;;;;23.79;33.45;93025.84;5067573;28;20774;-67
2021/05/18 10:26:43;;;;;;;0.20;0.10;;;;;;;28.06;25.08;93011.44;5090632;28;20564;-63
2021/05/18 10:36:36;;;;;;;0.20;0.20;;;;;;;27.71;25.66;93006.34;5052592;28;20068;-67
2021/05/18 10:39:22;;;;;;;0.65;0.43;;;;;;;27.61;26.08;93003.28;5070260;28;20032;-69
2021/05/18 10:41:49;;;;;;;0.45;0.10;;;;;;;27.80;26.23;93005.16;5069807;28;20025;-66
2021/05/18 10:44:14;;;;;;;0.47;0.00;;;;;;;28.17;24.48;93004.59;5071957;28;20042;-68
2021/05/18 10:46:48;;;;;;;0.30;0.10;;;;;;;27.41;25.49;93017.69;5090308;28;20028;-68
2021/05/18 10:49:15;;;;;;;0.22;0.20;;;;;;;27.24;24.74;93015.09;5086869;28;20098;-64
2021/05/18 10:51:47;;;;;;;0.10;0.10;;;;;;;27.09;24.19;93016.13;5069587;28;20059;-62
2021/05/18 10:54:18;;;;;;;1.00;0.52;;;;;;;27.41;24.39;93022.66;5069888;28;20508;-63
2021/05/18 10:56:55;;;;;;;0.40;0.40;;;;;;;27.30;22.90;93032.97;5069827;28;20032;-63
2021/05/18 10:59:40;;;;;;;1.05;0.50;;;;;;;26.59;23.21;93026.81;5069630;28;20089;-64
2021/05/18 11:02:20;;;;;;;0.10;0.10;;;;;;;26.20;23.59;93034.19;5083732;28;20543;-63
2021/05/18 11:04:55;;;;;;;0.20;0.20;;;;;;;25.74;22.55;93024.28;5089886;28;20027;-62
2021/05/18 11:07:27;;;;;;;1.05;0.82;;;;;;;25.91;23.17;93031.13;5089980;28;20079;-64
2021/05/18 11:09:53;;;;;;;4.22;0.55;;;;;;;26.06;25.42;93033.00;5069395;28;20404;-63
2021/05/18 11:12:24;;;;;;;0.65;0.40;;;;;;;25.81;24.72;93033.66;5086432;28;20028;-64
2021/05/18 11:15:01;;;;;;;0.85;0.60;;;;;;;26.06;26.42;93035.84;5070576;28;20516;-62
2021/05/18 11:17:32;;;;;;;1.10;0.20;;;;;;;26.05;24.74;93043.59;5086322;28;20028;-63
2021/05/18 11:20:06;;;;;;;4.55;0.20;;;;;;;25.60;26.20;93040.78;5088364;28;20030;-67
2021/05/18 11:25:32;;;;;;;0.15;0.10;;;;;;;24.39;25.26;93038.69;5076129;28;20055;-66
2021/05/18 11:28:16;;;;;;;0.98;0.20;;;;;;;24.67;27.65;93036.88;5068448;28;20477;-61
2021/05/18 11:30:44;;;;;;;0.20;0.20;;;;;;;24.43;27.79;93031.09;5083376;28;20032;-64
2021/05/18 11:33:10;;;;;;;0.10;0.10;;;;;;;24.27;26.75;93038.25;5090371;28;20028;-65
2021/05/18 11:35:36;;;;;;;3.83;0.22;;;;;;;24.03;29.14;93026.75;5088835;28;20038;-65
2021/05/18 11:38:03;;;;;;;0.10;0.10;;;;;;;23.76;28.60;93030.66;5090735;28;20078;-63
2021/05/18 11:40:28;;;;;;;0.10;0.10;;;;;;;23.37;29.36;93038.28;5083264;28;20035;-64
2021/05/18 11:42:54;;;;;;;0.80;0.30;;;;;;;23.19;28.82;93041.78;5070684;28;20024;-62
2021/05/18 11:45:21;;;;;;;1.08;0.50;;;;;;;23.04;29.27;93042.53;5071457;28;20058;-62
2021/05/18 11:47:48;;;;;;;0.22;0.22;;;;;;;22.79;31.24;93039.34;5084861;28;20020;-63
2021/05/18 11:50:16;;;;;;;0.10;0.10;;;;;;;22.77;30.25;93045.63;5080703;28;20024;-70
2021/05/18 11:52:42;;;;;;;0.20;0.13;;;;;;;22.42;28.30;93037.03;5089728;28;20535;-67
2021/05/18 11:55:22;;;;;;;0.47;0.45;;;;;;;22.39;27.07;93061.53;5077146;28;20032;-62
2021/05/18 11:57:48;;;;;;;1.30;0.40;;;;;;;22.17;29.74;93052.13;5082437;28;20110;-63
2021/05/18 12:00:28;;;;;;;7.10;0.55;;;;;;;21.37;30.79;93056.78;5075228;28;20503;-68
2021/05/18 12:03:11;;;;;;;4.00;0.30;;;;;;;21.28;32.71;93043.72;5090162;28;20080;-67
2021/05/18 12:05:54;;;;;;;0.40;0.22;;;;;;;21.17;30.24;93061.41;5090647;28;20024;-64
2021/05/18 12:08:27;;;;;;;1.13;0.38;;;;;;;21.14;31.54;93069.00;5089366;28;20041;-64
2021/05/18 12:10:53;;;;;;;0.32;0.32;;;;;;;20.64;33.08;93067.19;5089411;28;20116;-66
2021/05/18 12:13:29;;;;;;;1.15;0.40;;;;;;;20.39;34.94;93070.13;5078893;28;20029;-66
2021/05/18 12:16:06;;;;;;;0.68;0.65;;;;;;;20.52;34.91;93063.03;5068975;28;20028;-66
2021/05/18 12:18:36;;;;;;;10.32;4.68;;;;;;;20.50;35.25;93062.94;5076290;28;20028;-68
2021/05/18 12:21:21;;;;;;;26.60;10.93;;;;;;;20.32;35.38;93069.06;5068786;28;20028;-64
2021/05/18 12:24:13;;;;;;;3.47;1.45;;;;;;;20.13;33.66;93071.50;5077673;28;20039;-66
2021/05/18 12:26:59;;;;;;;0.25;0.25;;;;;;;20.07;34.57;93074.00;5075128;28;20078;-61
2021/05/18 12:29:49;;;;;;;0.20;0.20;;;;;;;19.90;34.76;93094.09;5069523;28;20078;-60
2021/05/18 12:32:21;;;;;;;0.13;0.13;;;;;;;19.80;37.31;93071.88;5072607;28;20104;-63
2021/05/18 12:34:54;;;;;;;0.55;0.50;;;;;;;19.54;35.70;93090.78;5070506;28;20478;-62
2021/05/18 12:37:34;;;;;;;1.45;0.40;;;;;;;19.16;35.82;93079.47;5068214;28;20033;-64
2021/05/18 12:40:01;;;;;;;0.10;0.10;;;;;;;19.23;36.09;93076.38;5080916;28;20092;-64
2021/05/18 12:42:28;;;;;;;0.45;0.45;;;;;;;19.16;36.61;93076.69;5087577;28;20024;-63
2021/05/18 12:44:55;;;;;;;3.65;0.50;;;;;;;18.95;38.66;93066.41;5088429;28;20028;-61
2021/05/18 12:47:45;;;;;;;0.47;0.47;;;;;;;19.14;37.16;93070.97;5080991;28;20020;-62
2021/05/18 12:50:16;;;;;;;0.52;0.47;;;;;;;19.59;36.97;93088.91;5072999;28;20131;-61
2021/05/18 12:52:45;;;;;;;0.25;0.25;;;;;;;19.69;33.88;93086.66;5078590;28;20040;-60
2021/05/18 12:55:23;;;;;;;;;;;;;;;19.76;35.50;93076.53;5075652;28;20029;-63
2021/05/18 12:58:00;;;;;;;0.68;0.68;;;;;;;19.82;32.50;93074.78;5076052;28;20225;-63
2021/05/18 13:00:37;;;;;;;1.45;1.13;;;;;;;19.81;33.26;93073.34;5074663;28;20084;-61
2021/05/18 13:03:17;;;;;;;1.10;0.70;;;;;;;19.77;33.45;93081.53;5076576;28;20016;-60
2021/05/18 13:05:45;;;;;;;0.20;0.20;;;;;;;19.77;33.78;93084.31;5076786;28;20039;-61
2021/05/18 13:08:20;;;;;;;0.60;0.60;;;;;;;19.70;32.66;93076.19;5075274;28;20040;-60
2021/05/18 13:13:43;;;;;;;0.55;0.50;;;;;;;18.97;35.73;93071.41;5074927;28;20020;-60
2021/05/18 13:16:20;;;;;;;0.25;0.25;;;;;;;19.18;35.19;93060.72;5077186;28;20101;-60
2021/05/18 13:18:59;;;;;;;0.82;0.40;;;;;;;19.27;36.52;93068.25;5075911;28;20012;-59
2021/05/18 13:21:40;;;;;;;0.77;0.75;;;;;;;19.19;35.14;93056.56;5076628;28;20048;-60
2021/05/18 13:26:35;;;;;;;0.10;0.10;;;;;;;19.19;34.56;93059.38;5075854;28;20081;-59
2021/05/18 13:29:15;;;;;;;0.63;0.63;;;;;;;18.98;35.46;93056.78;5081482;28;20024;-63
2021/05/18 13:31:40;;;;;;;1.00;0.95;;;;;;;18.97;35.88;93060.22;5087648;28;20043;-64
2021/05/18 13:34:07;;;;;;;1.20;0.57;;;;;;;18.99;34.54;93060.31;5088071;28;20508;-64
2021/05/18 13:36:34;;;;;;;0.38;0.35;;;;;;;19.12;34.39;93063.19;5088031;28;20031;-63
2021/05/18 13:39:05;;;;;;;5.93;0.63;;;;;;;19.21;36.49;93053.88;5087445;28;20032;-63
2021/05/18 13:41:31;;;;;;;0.77;0.50;;;;;;;19.21;34.28;93058.78;5081796;28;20020;-66
2021/05/18 13:43:56;;;;;;;0.40;0.40;;;;;;;19.28;35.06;93052.88;5066950;28;20025;-65
2021/05/18 13:46:22;;;;;;;0.20;0.20;;;;;;;19.29;35.07;93059.97;5086168;28;20113;-64
2021/05/18 13:48:48;;;;;;;1.02;0.30;;;;;;;19.50;35.46;93048.53;5083879;28;20020;-66
2021/05/18 13:51:16;;;;;;;0.20;0.20;;;;;;;19.45;34.81;93052.47;5071851;28;20029;-64
2021/05/18 13:53:42;;;;;;;0.65;0.20;;;;;;;19.38;35.88;93053.47;5066982;28;20019;-65
2021/05/18 13:56:09;;;;;;;2.13;0.20;;;;;;;19.37;34.17;93054.09;5067252;28;20025;-64
2021/05/18 13:58:34;;;;;;;0.20;0.20;;;;;;;19.30;35.59;93047.41;5067140;28;20433;-65
2021/05/18 14:01:05;;;;;;;0.17;0.17;;;;;;;19.11;34.50;93053.34;5066471;28;20059;-65
2021/05/18 14:03:30;;;;;;;4.57;0.60;;;;;;;18.99;34.89;93058.25;5066557;28;20029;-65
2021/05/18 14:05:56;;;;;;;22.90;4.82;;;;;;;19.01;37.20;93058.38;5068091;28;20046;-67
2021/05/18 14:11:18;;;;;;;2.35;0.95;;;;;;;19.15;36.77;93058.41;5069913;28;20028;-59
2021/05/18 14:13:48;;;;;;;0.20;0.20;;;;;;;19.17;34.05;93055.72;5043090;28;20032;-66
2021/05/18 14:16:15;;;;;;;2.08;0.55;;;;;;;19.26;35.07;93047.19;5069864;28;20024;-67
2021/05/18 14:18:41;;;;;;;2.08;0.75;;;;;;;19.41;36.21;93057.09;5069915;28;20378;-67
2021/05/18 14:21:07;;;;;;;0.10;0.10;;;;;;;19.41;33.19;93055.03;5069949;28;20063;-64
2021/05/18 14:23:47;;;;;;;0.20;0.20;;;;;;;19.42;34.99;93062.13;5069970;28;20048;-64
2021/05/18 14:26:13;;;;;;;1.20;0.30;;;;;;;19.40;33.75;93056.41;5069961;28;20028;-66
2021/05/18 14:28:39;;;;;;;0.80;0.50;;;;;;;19.24;33.81;93055.47;5069740;28;20024;-67
2021/05/18 14:31:07;;;;;;;1.98;0.85;;;;;;;19.43;33.75;93057.94;5068882;28;20025;-66
2021/05/18 14:33:33;;;;;;;1.13;0.68;;;;;;;19.42;34.80;93052.97;5069701;28;20025;-68
2021/05/18 14:35:59;;;;;;;0.73;0.30;;;;;;;19.19;31.15;93064.97;5069660;28;20020;-67
2021/05/18 14:38:25;;;;;;;0.75;0.75;;;;;;;18.86;32.22;93072.91;5075325;28;20020;-67
2021/05/18 14:56:56;;;;;;;2.13;0.50;;;;;;;18.59;32.91;93069.91;5089051;28;20035;-64
2021/05/18 14:59:22;;;;;;;0.57;0.50;;;;;;;18.66;32.56;93071.72;5089061;28;20024;-69
2021/05/18 15:01:47;;;;;;;0.20;0.20;;;;;;;18.54;32.70;93071.72;5088781;28;20042;-64
2021/05/18 15:04:13;;;;;;;0.20;0.20;;;;;;;18.41;30.81;93049.97;5083336;28;20104;-65
2021/05/18 15:06:40;;;;;;;0.20;0.20;;;;;;;18.40;33.99;93070.16;5076787;28;20051;-69
2021/05/18 15:09:06;;;;;;;2.22;0.90;;;;;;;18.17;32.77;93063.22;5076636;28;20535;-67
2021/05/18 15:11:32;;;;;;;2.05;1.25;;;;;;;18.19;31.37;93073.81;5079482;28;20036;-64
2021/05/18 15:13:58;;;;;;;1.42;1.33;;;;;;;18.25;32.45;93076.25;5078736;28;20397;-64
2021/05/18 15:16:23;;;;;;;2.35;2.00;;;;;;;18.30;33.05;93066.75;5080937;28;20035;-69
2021/05/18 15:18:51;;;;;;;0.68;0.52;;;;;;;18.36;32.90;93075.50;5078049;28;20051;-62
2021/05/18 15:21:17;;;;;;;1.48;0.90;;;;;;;18.14;32.25;93070.06;5079919;28;20095;-67
2021/05/18 15:23:44;;;;;;;2.45;1.33;;;;;;;18.21;34.09;93065.56;5077807;28;20111;-66
2021/05/18 15:26:09;;;;;;;0.40;0.38;;;;;;;18.29;33.52;93049.25;5077469;28;20058;-63
2021/05/18 15:28:43;;;;;;;0.10;0.10;;;;;;;18.20;32.29;93061.28;5079324;28;20020;-64
2021/05/18 15:31:09;;;;;;;0.85;0.60;;;;;;;18.21;31.77;93062.75;5078119;28;20500;-62
2021/05/18 15:33:34;;;;;;;1.00;0.60;;;;;;;18.29;31.33;93062.50;5077390;28;20022;-63
2021/05/18 15:36:00;;;;;;;0.20;0.20;;;;;;;18.22;31.85;93069.78;5081403;28;20576;-58
2021/05/18 15:38:25;;;;;;;1.88;0.50;;;;;;;18.21;31.56;93078.78;5078543;28;20111;-59
2021/05/18 15:40:51;;;;;;;0.40;0.40;;;;;;;18.17;31.40;93080.00;5089033;28;20023;-58
2021/05/18 15:43:16;;;;;;;0.47;0.47;;;;;;;18.16;32.42;93072.22;5089362;28;20149;-58
2021/05/18 15:45:42;;;;;;;0.65;0.40;;;;;;;18.18;31.46;93081.47;5067723;28;20074;-59
2021/05/18 15:48:07;;;;;;;0.10;0.10;;;;;;;18.07;31.00;93075.88;5066878;28;20025;-58
2021/05/18 15:50:34;;;;;;;2.33;0.35;;;;;;;18.02;31.63;93085.34;5077891;28;20077;-59
2021/05/18 15:52:59;;;;;;;0.10;0.10;;;;;;;18.04;32.58;93082.69;5086805;28;20044;-60
2021/05/18 15:55:25;;;;;;;0.10;0.10;;;;;;;18.06;30.67;93091.19;5087347;28;20034;-58
2021/05/18 15:57:51;;;;;;;0.20;0.20;;;;;;;17.99;32.98;93095.69;5088218;28;20035;-59
2021/05/18 16:00:18;;;;;;;0.10;0.10;;;;;;;17.97;31.92;93086.44;5087911;28;20051;-58
2021/05/18 16:02:43;;;;;;;0.10;0.10;;;;;;;18.04;32.82;93083.41;5083164;28;20496;-58
2021/05/18 16:05:09;;;;;;;0.20;0.20;;;;;;;17.99;31.41;93087.31;5076853;28;20066;-59
2021/05/18 16:07:36;;;;;;;0.50;0.20;;;;;;;17.94;30.79;93074.41;5082585;28;20020;-59
2021/05/18 16:10:01;;;;;;;0.20;0.20;;;;;;;17.85;32.53;93085.69;5076765;28;20019;-59
2021/05/18 16:12:27;;;;;;;1.40;0.30;;;;;;;17.96;33.15;93087.75;5072838;28;20105;-60
2021/05/18 16:14:52;;;;;;;0.63;0.40;;;;;;;18.08;34.15;93091.31;5077452;28;20408;-59
2021/05/18 16:17:21;;;;;;;0.38;0.38;;;;;;;17.93;32.20;93078.53;5077858;28;20028;-59
2021/05/18 16:19:47;;;;;;;2.73;0.20;;;;;;;18.04;33.10;93089.00;5073870;28;20515;-58
2021/05/18 16:22:13;;;;;;;1.65;0.47;;;;;;;18.05;33.50;93081.34;5074862;28;20020;-58
2021/05/18 16:24:38;;;;;;;0.25;0.25;;;;;;;18.05;32.60;93081.34;5068570;28;20027;-58
2021/05/18 16:27:08;;;;;;;1.40;0.32;;;;;;;18.14;33.99;93077.69;5084300;28;20047;-58
2021/05/18 16:29:34;;;;;;;0.20;0.20;;;;;;;18.19;33.58;93073.81;5083694;28;20740;-58
2021/05/18 16:31:59;;;;;;;0.40;0.28;;;;;;;18.25;33.57;93084.63;5074407;28;20052;-58
2021/05/18 16:34:27;;;;;;;0.50;0.40;;;;;;;18.30;34.30;93070.28;5068146;28;20016;-62
2021/05/18 16:36:52;;;;;;;0.22;0.20;;;;;;;17.99;34.28;93070.53;5075199;28;20047;-62
2021/05/18 16:39:22;;;;;;;2.15;0.43;;;;;;;17.82;34.04;93084.81;5075871;28;20747;-62
2021/05/18 16:41:48;;;;;;;1.27;0.60;;;;;;;17.62;34.04;93083.59;5075334;28;20411;-65
2021/05/18 16:44:13;;;;;;;3.67;0.70;;;;;;;17.50;34.73;93087.69;5067283;28;20033;-62
2021/05/18 16:46:39;;;;;;;0.65;0.32;;;;;;;17.49;35.64;93080.63;5067247;28;20021;-64